This is the latest recevied weather packets stored in our database for station/object OE3MHU-12. If no packets are shown the sender has not sent any weather packets the latest 10 day(s).
| Time | Temp. | Humidity | Pressure | Rain* | Wind** | Luminosity | Snow |
|---|---|---|---|---|---|---|---|
| 1777451162 | 11.11° C | 38% | 1024.2 hPa | 0 mm | - | - | - |
| 1777449362 | 11.11° C | 39% | 1024.1 hPa | 0 mm | - | - | - |
| 1777447562 | 10.56° C | 40% | 1024.1 hPa | 0 mm | - | - | - |
| 1777443963 | 8.89° C | 44% | 1024 hPa | 0 mm | - | - | - |
| 1777442163 | 7.22° C | 49% | 1023.8 hPa | 0 mm | - | - | - |
| 1777440363 | 2.22° C | 68% | 1023.8 hPa | 0 mm | - | - | - |
| 1777438563 | 0.56° C | 71% | 1023.5 hPa | 0 mm | - | - | - |
| 1777429564 | 2.22° C | 63% | 1022.5 hPa | 0 mm | - | - | - |
| 1777411564 | 8.33° C | 57% | 1021.9 hPa | 0 mm | - | - | - |
| 1777407964 | 10° C | 55% | 1021 hPa | 0 mm | - | - | - |
| 1777406165 | 10.56° C | 54% | 1020.6 hPa | 0 mm | - | - | - |
| 1777404365 | 11.11° C | 52% | 1020.4 hPa | 0 mm | - | - | - |
| 1777402566 | 12.22° C | 48% | 1020 hPa | 0 mm | - | - | - |
| 1777397166 | 15.56° C | 39% | 1019.1 hPa | 0 mm | - | - | - |
| 1777395365 | 16.67° C | 37% | 1018.8 hPa | 0 mm | - | - | - |
| 1777389965 | 18.33° C | 35% | 1018.6 hPa | 0 mm | - | - | - |
| 1777386366 | 18.89° C | 33% | 1018.7 hPa | 0 mm | - | - | - |
| 1777384567 | 18.89° C | 34% | 1019 hPa | 0 mm | - | - | - |
| 1777379166 | 17.78° C | 36% | 1019.7 hPa | 0 mm | - | - | - |
| 1777375566 | 17.22° C | 35% | 1020 hPa | 0 mm | - | - | - |
| 1777371966 | 16.67° C | 37% | 1020.3 hPa | 0 mm | - | - | - |
| 1777370166 | 17.22° C | 37% | 1020.3 hPa | 0 mm | - | - | - |
| 1777368366 | 16.11° C | 39% | 1020.3 hPa | 0 mm | - | - | - |
| 1777364767 | 15° C | 42% | 1020.5 hPa | 0 mm | - | - | - |
| 1777362967 | 13.89° C | 46% | 1020.5 hPa | 0 mm | - | - | - |
* Rain latest hour (hover to see other rain measurements)
** Current wind speed in m/s (hover to see current wind gust speed)